This is the latest recevied weather packets stored in our database for station/object VK5TRM-13. If no packets are shown the sender has not sent any weather packets the latest 10 day(s).
| Time | Temp. | Humidity | Pressure | Rain* | Wind** | Luminosity | Snow |
|---|---|---|---|---|---|---|---|
| 1778308204 | 16.67° C | 65% | 1028 hPa | 0 mm | - | - | - |
| 1778307304 | 16.67° C | 65% | 1028 hPa | 0 mm | - | - | - |
| 1778306405 | 16.67° C | 65% | 1028.1 hPa | 0 mm | - | - | - |
| 1778305505 | 16.67° C | 65% | 1028.1 hPa | 0 mm | - | - | - |
| 1778304604 | 16.67° C | 63% | 1028 hPa | 0 mm | - | - | - |
| 1778303704 | 16.67° C | 63% | 1028 hPa | 0 mm | - | - | - |
| 1778302804 | 17.22° C | 64% | 1027.9 hPa | 0 mm | - | - | - |
| 1778301904 | 17.22° C | 64% | 1027.9 hPa | 0 mm | - | - | - |
| 1778301005 | 16.67° C | 67% | 1028.1 hPa | 0 mm | - | - | - |
| 1778300105 | 16.67° C | 67% | 1028.1 hPa | 0 mm | - | - | - |
| 1778299204 | 16.67° C | 66% | 1028.3 hPa | 0 mm | - | - | - |
| 1778298304 | 16.67° C | 66% | 1028.3 hPa | 0 mm | - | - | - |
| 1778297404 | 16.67° C | 69% | 1028.7 hPa | 0 mm | - | - | - |
| 1778296504 | 16.67° C | 69% | 1028.7 hPa | 0 mm | - | - | - |
| 1778295605 | 16.11° C | 71% | 1029.3 hPa | 0 mm | - | - | - |
| 1778294705 | 16.11° C | 71% | 1029.3 hPa | 0 mm | - | - | - |
| 1778293804 | 15.56° C | 72% | 1030 hPa | 0 mm | - | - | - |
| 1778292904 | 15.56° C | 72% | 1030 hPa | 0 mm | - | - | - |
| 1778292005 | 15.56° C | 73% | 1030.2 hPa | 0 mm | - | - | - |
| 1778291105 | 15.56° C | 73% | 1030.2 hPa | 0 mm | - | - | - |
| 1778290204 | 15° C | 80% | 1030.4 hPa | 0 mm | - | - | - |
| 1778289305 | 15° C | 80% | 1030.4 hPa | 0 mm | - | - | - |
| 1778288405 | 14.44° C | 83% | 1030.5 hPa | 0 mm | - | - | - |
| 1778287504 | 14.44° C | 83% | 1030.5 hPa | 0 mm | - | - | - |
| 1778286604 | 13.33° C | 86% | 1030.6 hPa | 0 mm | - | - | - |
* Rain since midnight (hover to see other rain measurements)
** Current wind speed in m/s (hover to see current wind gust speed)